AirNav   Pilot Hours Calculator
 
 1353 users online  

2XA0 Foard County Airport
Crowell, Texas, USA

GOING TO CROWELL?


FAA INFORMATION EFFECTIVE 12 SEPTEMBER 2019

Location

FAA Identifier: 2XA0
Lat/Long: 33-58-45.3030N 099-42-46.3350W
33-58.755050N 099-42.772250W
33.9792508,-99.7128708
(estimated)
Elevation: 1479 ft. / 450.8 m (surveyed)
Variation: 08E (1985)
From city: 1 mile E of CROWELL, TX
Time zone: UTC -5 (UTC -6 during Standard Time)
Zip code: 79227

Airport Operations

Airport use: Private use. Permission required prior to landing
Activation date: 10/1946
Control tower: no
ARTCC: FORT WORTH CENTER
FSS: FORT WORTH FLIGHT SERVICE STATION
Attendance: UNATNDD
Wind indicator: yes
Segmented circle: yes
Beacon: white-green (lighted land airport)
ROTG BCN OTS INDEFLY. Operates sunset to sunrise.

Nearby radio navigation aids

VOR radial/distance  VOR name  Freq  Var
CDSr119/36.9CHILDRESS VORTAC117.6010E

Airport Services

Parking: tiedowns
Airframe service: NONE
Powerplant service: NONE
Bottled oxygen: NONE
Bulk oxygen: NONE

Runway Information

Runway 17/35

Dimensions: 3200 x 39 ft. / 975 x 12 m
Surface: asphalt, in poor condition
RY PAVEMENT HAS GRASS ENCROACHMENT.
Weight bearing capacity: 
Single wheel: 8.0
Runway edge lights: medium intensity
MIRL OTS INDEFLY.
Runway edge markings: RY MARKINGS FADED.
RUNWAY 17  RUNWAY 35
Traffic pattern: leftleft
Markings: basic, in poor conditionbasic, in poor condition
Obstructions: 15 ft. road, 490 ft. from runway, 19:1 slope to clearnone
+10 FT TREE 55 FT LEFT 135 FT SOUTH OF THLD.

Airport Ownership and Management from official FAA records

Ownership: Publicly-owned
Owner: FOARD COUNTY
COUNTY COURTHOUSE, PO BOX 660
CROWELL, TX 79227
Phone 940-684-1424
Manager: MARK CHRISTOPHER
COUNTY COURTHOUSE, PO BOX 660
CROWELL, TX 79227
Phone 940-684-1424

Airport Operational Statistics

Aircraft operations: avg 42/month *
100% transient general aviation
* for 12-month period ending 17 February 2004

Additional Remarks

ARPT CLSD NIGHTS.
FOR CD CTC FORT WORTH ARTCC AT 817-858-7584.

Instrument Procedures

There are no published instrument procedures at 2XA0.

Some nearby airports with instrument procedures:

F05 - Wilbarger County Airport (26 nm NE)
3F6 - Dan E Richards Municipal Airport (28 nm W)
60F - Seymour Municipal Airport (30 nm SE)
KCDS - Childress Municipal Airport (39 nm NW)
KFDR - Frederick Regional Airport (43 nm NE)
 
Loc | Ops | Rwys | IFR | FBO | Links
Com | Nav | Svcs | Stats | Notes

AirBoss

 
Area around 2XA0 (Foard County Airport)
 
Road maps at: MapQuest Bing Google
 
Aerial photo
No photo
 
Sectional chart

 
Airport distance calculator
Flying to Foard County Airport? Find the distance to fly.

From to 2XA0

Sunrise and sunset
Times for 20-Sep-2019
 Local
(UTC-5)
 Zulu
(UTC)
Morning civil twilight07:0212:02
Sunrise07:2712:27
Sunset19:3800:38
Evening civil twilight20:0301:03

Current date and time
Zulu (UTC)  20-Sep-2019 17:29:01
Local (UTC-5)  20-Sep-2019 12:29:01
 
METAR
KF05 
26nm NE 
201715Z AUTO 16004KT 10SM OVC026 27/21 A2996 RMK AO1 T02680210
KCDS 
39nm NW 
201653Z AUTO 11005KT 10SM FEW027 OVC037 23/20 A3000 RMK AO2 SLP135 T02330200
KFDR 
43nm NE 
201723Z AUTO 18006KT 10SM VCTS BKN021 28/22 A2993 RMK AO2 T02830222
KLTS 
47nm NE 
201656Z 16005KT 10SM OVC014 25/21 A2998 RMK AO2A CIG 011 RWY35L CIG 012 RWY35R SLP139 T02470206 $
KAXS 
47nm NE 
201715Z AUTO 18004KT 4SM HZ OVC012 25/21 A3000 RMK AO2 T02520211
TAF
KCDS 
39nm NW 
201554Z 2016/2112 11005KT P6SM SCT010 BKN020 OVC030 FM201700 16009KT P6SM SCT100 FM201900 19015KT P6SM VCTS BKN100CB
KLTS 
47nm NE 
201415Z 2014/2115 VRB06KT 9999 OVC010 QNH2993INS TEMPO 2014/2016 BKN007 OVC010 BECMG 2017/2018 14008KT 9999 SCT020 BKN050 OVC100 QNH2991INS BECMG 2022/2023 10015G25KT 9000 -SHRA SCT035 BKN050 OVC100 510273 QNH2985INS TEMPO 2023/2104 VRB30G40KT 9000 -TSRA SCT035CB OVC050 BECMG 2104/2105 14009KT 9000 -SHRA VCTS BKN020CB 520032 510804 QNH2990INS BECMG 2114/2115 18015G20KT 9999 NSW FEW012 510042 QNH2997INS TX32/2021Z TN19/2112Z
NOTAMs
Click for the latest NOTAMs
NOTAMs are issued by the DoD/FAA and will open in a separate window not controlled by AirNav.

 

 
 

Would you like to see your business listed on this page?

 If your business provides an interesting product or service to pilots, flight crews, aircraft, or users of the Foard County Airport, you should consider listing it here.  To start the listing process, click on the button below
 
Add a business
 

Other Pages about Foard County Airport

Update a link
 
Copyright © AirNav, LLC. All rights reserved. Privacy Policy  Contact